createdAt,value
2018-06-07T00:00:49.036Z,32.30
2018-06-07T00:03:18.211Z,31.90
2018-06-07T00:05:46.411Z,32.00
2018-06-07T00:08:14.608Z,32.10
2018-06-07T00:10:42.964Z,33.10
2018-06-07T00:13:11.325Z,32.60
2018-06-07T00:15:39.506Z,32.70
2018-06-07T00:18:07.727Z,32.80
2018-06-07T00:20:36.013Z,32.90
2018-06-07T00:23:04.289Z,32.30
2018-06-07T00:25:32.510Z,33.20
2018-06-07T00:28:00.774Z,32.40
2018-06-07T00:30:29.037Z,33.10
2018-06-07T00:32:57.561Z,32.30
2018-06-07T00:35:29.935Z,33.10
2018-06-07T00:37:58.151Z,32.70
2018-06-07T00:40:26.288Z,33.30
2018-06-07T00:42:54.439Z,33.50
2018-06-07T00:45:22.595Z,33.50
2018-06-07T00:47:50.706Z,33.50
2018-06-07T00:50:19.064Z,34.40
2018-06-07T00:52:47.180Z,33.50
2018-06-07T00:55:15.439Z,33.30
2018-06-07T00:57:43.773Z,33.10
2018-06-07T01:00:11.945Z,34.10
2018-06-07T01:02:40.142Z,33.50
2018-06-07T01:05:08.293Z,33.30
2018-06-07T01:07:36.473Z,33.60
2018-06-07T01:10:04.722Z,33.60
2018-06-07T01:12:33.018Z,33.70
2018-06-07T01:15:01.263Z,33.70
2018-06-07T01:17:29.536Z,33.90
2018-06-07T01:19:57.686Z,33.80
2018-06-07T01:22:25.858Z,33.70
2018-06-07T01:24:54.017Z,34.80
2018-06-07T01:27:26.430Z,34.10
2018-06-07T01:30:06.035Z,34.40
2018-06-07T01:32:51.515Z,34.30
2018-06-07T01:35:19.821Z,34.30
2018-06-07T01:37:59.434Z,33.50
2018-06-07T01:40:27.606Z,33.70
2018-06-07T01:42:55.811Z,34.20
2018-06-07T01:47:51.987Z,34.10
2018-06-07T01:50:20.142Z,34.10
2018-06-07T01:52:49.198Z,34.20
2018-06-07T01:55:17.377Z,34.90
2018-06-07T01:57:45.561Z,34.60
2018-06-07T02:00:13.935Z,34.50
2018-06-07T02:02:42.122Z,33.80
2018-06-07T02:05:10.297Z,34.20
2018-06-07T02:07:38.562Z,34.80
2018-06-07T02:10:06.781Z,34.40
2018-06-07T02:12:34.931Z,34.60
2018-06-07T02:15:03.201Z,34.60
2018-06-07T02:17:31.425Z,34.80
2018-06-07T02:20:00.753Z,35.30
2018-06-07T02:22:28.944Z,34.50
2018-06-07T02:24:57.353Z,34.90
2018-06-07T02:27:25.541Z,34.70
2018-06-07T02:29:53.671Z,34.50
2018-06-07T02:32:21.857Z,34.60
2018-06-07T02:34:50.172Z,35.30
2018-06-07T02:37:18.533Z,34.90
2018-06-07T02:39:46.725Z,34.50
2018-06-07T02:42:14.882Z,35.40
2018-06-07T02:44:43.145Z,34.90
2018-06-07T02:47:11.336Z,34.70
2018-06-07T02:49:39.657Z,35.00
2018-06-07T02:52:07.944Z,35.10
2018-06-07T02:54:36.306Z,35.60
2018-06-07T02:57:04.473Z,35.10
2018-06-07T02:59:33.414Z,36.00
2018-06-07T03:02:01.705Z,34.70
2018-06-07T03:04:29.971Z,35.00
2018-06-07T03:06:58.245Z,35.40
2018-06-07T03:09:26.443Z,34.80
2018-06-07T03:11:54.651Z,35.20
2018-06-07T03:14:22.823Z,35.70
2018-06-07T03:16:50.919Z,35.00
2018-06-07T03:19:19.188Z,35.40
2018-06-07T03:21:47.987Z,36.00
2018-06-07T03:24:16.125Z,36.30
2018-06-07T03:26:44.283Z,35.60
2018-06-07T03:29:12.556Z,35.10
2018-06-07T03:31:40.836Z,35.20
2018-06-07T03:34:09.195Z,35.50
2018-06-07T03:36:37.351Z,36.50
2018-06-07T03:39:07.423Z,36.20
2018-06-07T03:41:35.733Z,35.30
2018-06-07T03:44:03.984Z,36.10
2018-06-07T03:46:32.229Z,35.40
2018-06-07T03:49:00.479Z,35.80
2018-06-07T03:51:28.789Z,35.70
2018-06-07T03:53:56.921Z,35.50
2018-06-07T03:56:25.370Z,35.40
2018-06-07T03:58:53.508Z,39.70
2018-06-07T04:01:21.840Z,36.10
2018-06-07T04:03:50.324Z,41.00
2018-06-07T04:06:18.503Z,37.70
2018-06-07T04:08:46.736Z,36.80
2018-06-07T04:11:15.089Z,40.30
2018-06-07T04:13:43.462Z,37.10
2018-06-07T04:16:11.618Z,38.10
2018-06-07T04:18:39.895Z,36.80
2018-06-07T04:21:08.148Z,38.90
2018-06-07T04:23:36.432Z,36.60
2018-06-07T04:26:04.622Z,35.70
2018-06-07T04:28:32.831Z,37.70
2018-06-07T04:31:01.190Z,36.70
2018-06-07T04:33:29.490Z,37.10
2018-06-07T04:35:57.786Z,39.10
2018-06-07T04:38:26.545Z,38.30
2018-06-07T04:40:54.746Z,38.00
2018-06-07T04:43:24.648Z,36.30
2018-06-07T04:45:52.844Z,35.10
2018-06-07T04:48:20.994Z,37.20
2018-06-07T04:50:49.676Z,36.30
2018-06-07T04:53:17.791Z,38.00
2018-06-07T04:55:46.014Z,35.60
2018-06-07T04:58:14.168Z,35.00
2018-06-07T05:00:42.540Z,36.60
2018-06-07T05:05:38.949Z,36.80
2018-06-07T05:08:07.208Z,38.20
2018-06-07T05:10:35.431Z,37.20
2018-06-07T05:13:03.706Z,37.10
2018-06-07T05:15:31.948Z,38.00
2018-06-07T05:18:00.117Z,38.10
2018-06-07T05:20:28.327Z,38.30
2018-06-07T05:22:56.532Z,35.90
2018-06-07T05:25:25.811Z,35.70
2018-06-07T05:27:53.912Z,35.20
2018-06-07T05:30:23.394Z,34.40
2018-06-07T05:32:51.589Z,35.60
2018-06-07T05:35:19.818Z,34.60
2018-06-07T05:37:48.060Z,34.60
2018-06-07T05:40:16.347Z,35.60
2018-06-07T05:42:44.497Z,35.40
2018-06-07T05:45:12.662Z,36.30
2018-06-07T05:47:40.856Z,37.10
2018-06-07T05:50:08.976Z,35.50
2018-06-07T05:52:37.200Z,35.50
2018-06-07T05:55:05.533Z,35.80
2018-06-07T05:57:33.706Z,36.60
2018-06-07T06:00:02.072Z,37.80
2018-06-07T06:02:30.244Z,37.20
2018-06-07T06:04:58.410Z,35.30
2018-06-07T06:07:26.546Z,34.40
2018-06-07T06:09:54.817Z,34.20
2018-06-07T06:12:23.960Z,35.50
2018-06-07T06:14:52.094Z,35.80
2018-06-07T06:17:20.242Z,36.50
2018-06-07T06:19:48.682Z,36.80
2018-06-07T06:22:16.848Z,34.60
2018-06-07T06:24:45.012Z,34.50
2018-06-07T06:27:13.192Z,34.80
2018-06-07T06:29:41.365Z,35.00
2018-06-07T06:32:09.541Z,35.30
2018-06-07T06:34:37.844Z,35.40
2018-06-07T06:37:05.978Z,34.80
2018-06-07T06:39:34.184Z,35.20
2018-06-07T06:42:02.401Z,36.00
2018-06-07T06:44:30.548Z,35.20
2018-06-07T06:46:58.823Z,34.90
2018-06-07T06:49:27.048Z,34.60
2018-06-07T06:51:55.132Z,34.30
2018-06-07T06:54:23.330Z,34.90
2018-06-07T06:56:51.568Z,34.80
2018-06-07T06:59:19.711Z,35.50
2018-06-07T07:01:47.864Z,34.40
2018-06-07T07:04:16.057Z,34.80
2018-06-07T07:06:44.313Z,35.40
2018-06-07T07:09:12.474Z,34.50
2018-06-07T07:11:40.635Z,35.00
2018-06-07T07:14:09.049Z,34.90
2018-06-07T07:16:37.271Z,34.40
2018-06-07T07:19:05.649Z,35.30
2018-06-07T07:24:01.792Z,35.10
2018-06-07T07:26:30.291Z,34.20
2018-06-07T07:28:58.485Z,33.90
2018-06-07T07:31:26.597Z,34.30
2018-06-07T07:33:54.970Z,34.40
2018-06-07T07:36:23.203Z,33.80
2018-06-07T07:38:51.429Z,34.30
2018-06-07T07:41:19.571Z,34.30
2018-06-07T07:43:47.811Z,34.70
2018-06-07T07:46:16.087Z,33.50
2018-06-07T07:48:44.257Z,33.60
2018-06-07T07:51:12.460Z,33.90
2018-06-07T07:53:40.661Z,33.80
2018-06-07T07:56:08.997Z,34.00
2018-06-07T07:58:37.136Z,33.30
2018-06-07T08:01:05.443Z,33.30
2018-06-07T08:03:33.683Z,33.70
2018-06-07T08:06:02.110Z,34.30
2018-06-07T08:08:30.397Z,33.00
2018-06-07T08:10:58.611Z,33.00
2018-06-07T08:13:26.894Z,32.90
2018-06-07T08:15:55.091Z,32.80
2018-06-07T08:18:23.403Z,33.00
2018-06-07T08:20:51.576Z,32.80
2018-06-07T08:23:19.793Z,32.50
2018-06-07T08:25:54.920Z,32.80
2018-06-07T08:28:23.102Z,33.10
2018-06-07T08:30:51.327Z,33.30
2018-06-07T08:33:19.552Z,33.20
2018-06-07T08:35:47.796Z,33.00
2018-06-07T08:38:16.119Z,32.60
2018-06-07T08:40:44.407Z,32.40
2018-06-07T08:43:13.220Z,32.10
2018-06-07T08:45:41.384Z,31.90
2018-06-07T08:48:09.734Z,31.80
2018-06-07T08:50:37.882Z,31.70
2018-06-07T08:53:06.076Z,31.50
2018-06-07T08:55:34.257Z,31.70
2018-06-07T08:58:02.454Z,31.80
2018-06-07T09:00:31.558Z,32.40
2018-06-07T09:02:59.813Z,32.40
2018-06-07T09:05:28.025Z,32.00
2018-06-07T09:07:56.298Z,31.50
2018-06-07T09:10:24.488Z,32.20
2018-06-07T09:12:52.629Z,32.10
2018-06-07T09:15:21.321Z,31.50
2018-06-07T09:17:49.660Z,31.60
2018-06-07T09:20:17.824Z,31.10
2018-06-07T09:22:46.031Z,30.60
2018-06-07T09:25:14.197Z,30.60
2018-06-07T09:27:43.306Z,31.10
2018-06-07T09:30:11.509Z,30.60
2018-06-07T09:32:39.646Z,30.70
2018-06-07T09:35:07.833Z,30.60
2018-06-07T09:37:35.958Z,30.60
2018-06-07T09:40:04.180Z,30.00
2018-06-07T09:42:32.343Z,30.30
2018-06-07T09:45:01.002Z,30.30
2018-06-07T09:47:29.233Z,30.20
2018-06-07T09:49:57.407Z,30.00
2018-06-07T09:52:25.523Z,30.00
2018-06-07T09:54:53.878Z,29.90
2018-06-07T09:57:22.162Z,29.80
2018-06-07T09:59:50.565Z,29.70
2018-06-07T10:02:18.872Z,29.80
2018-06-07T10:04:47.102Z,29.50
2018-06-07T10:07:15.328Z,29.00
2018-06-07T10:09:43.657Z,29.00
2018-06-07T10:12:11.888Z,29.20
2018-06-07T10:14:40.194Z,28.90
2018-06-07T10:17:08.403Z,28.90
2018-06-07T10:19:36.646Z,28.50
2018-06-07T10:22:04.956Z,28.40
2018-06-07T10:24:33.082Z,28.60
2018-06-07T10:27:01.228Z,28.70
2018-06-07T10:29:29.369Z,28.20
2018-06-07T10:31:57.656Z,28.10
2018-06-07T10:34:25.812Z,27.70
2018-06-07T10:36:54.153Z,27.50
2018-06-07T10:39:22.310Z,27.40
2018-06-07T10:41:50.648Z,27.40
2018-06-07T10:44:18.802Z,27.80
2018-06-07T10:46:47.741Z,27.60
2018-06-07T10:49:15.946Z,27.40
2018-06-07T10:51:44.380Z,26.90
2018-06-07T10:54:12.532Z,26.80
2018-06-07T10:56:41.588Z,26.70
2018-06-07T10:59:09.782Z,26.40
2018-06-07T11:01:37.983Z,27.20
2018-06-07T11:04:06.354Z,27.00
2018-06-07T11:06:34.526Z,27.20
2018-06-07T11:09:02.833Z,26.50
2018-06-07T11:11:31.122Z,26.70
2018-06-07T11:13:59.296Z,25.80
2018-06-07T11:16:28.498Z,26.00
2018-06-07T11:18:58.217Z,26.30
2018-06-07T11:21:26.448Z,26.30
2018-06-07T11:23:54.733Z,25.40
2018-06-07T11:26:23.248Z,25.50
2018-06-07T11:28:51.406Z,26.10
2018-06-07T11:31:20.374Z,25.70
2018-06-07T11:33:50.064Z,25.60
2018-06-07T11:36:18.260Z,25.50
2018-06-07T11:38:46.509Z,25.40
2018-06-07T11:41:14.643Z,24.70
2018-06-07T11:43:42.854Z,24.30
2018-06-07T11:46:11.033Z,25.20
2018-06-07T11:48:39.416Z,24.60
2018-06-07T11:51:07.579Z,24.40
2018-06-07T11:53:35.721Z,24.40
2018-06-07T11:56:03.866Z,24.30
2018-06-07T11:58:32.168Z,24.20
2018-06-07T12:01:00.491Z,23.90
2018-06-07T12:03:28.779Z,24.20
2018-06-07T12:05:56.912Z,23.70
2018-06-07T12:08:25.159Z,23.50
2018-06-07T12:10:53.381Z,23.20
2018-06-07T12:13:21.567Z,23.40
2018-06-07T12:15:50.167Z,23.50
2018-06-07T12:18:18.310Z,23.10
2018-06-07T12:20:46.426Z,23.10
2018-06-07T12:23:14.589Z,22.30
2018-06-07T12:25:42.751Z,22.40
2018-06-07T12:28:10.920Z,22.70
2018-06-07T12:33:06.769Z,22.60
2018-06-07T12:35:35.002Z,23.00
2018-06-07T12:38:03.149Z,23.00
2018-06-07T12:40:31.528Z,22.70
2018-06-07T12:42:59.612Z,23.00
2018-06-07T12:45:28.179Z,22.70
2018-06-07T12:47:56.313Z,22.60
2018-06-07T12:50:24.531Z,22.90
2018-06-07T12:52:52.662Z,23.50
2018-06-07T12:55:20.904Z,23.00
2018-06-07T12:57:49.012Z,22.50
2018-06-07T13:00:17.152Z,22.40
2018-06-07T13:02:45.449Z,22.30
2018-06-07T13:05:13.663Z,22.10
2018-06-07T13:07:41.934Z,22.00
2018-06-07T13:10:10.176Z,22.10
2018-06-07T13:12:38.498Z,22.40
2018-06-07T13:15:07.648Z,22.80
2018-06-07T13:20:03.938Z,22.00
2018-06-07T13:22:32.093Z,22.10
2018-06-07T13:25:00.440Z,22.30
2018-06-07T13:29:56.944Z,21.30
2018-06-07T13:32:25.153Z,21.40
2018-06-07T13:34:53.349Z,21.20
2018-06-07T13:37:21.658Z,21.60
2018-06-07T13:39:49.859Z,22.00
2018-06-07T13:42:19.337Z,21.10
2018-06-07T13:44:47.635Z,21.40
2018-06-07T13:47:15.795Z,21.50
2018-06-07T13:49:44.106Z,21.90
2018-06-07T13:52:12.363Z,22.20
2018-06-07T13:54:40.578Z,21.80
2018-06-07T13:57:08.944Z,21.50
2018-06-07T13:59:37.219Z,21.40
2018-06-07T14:02:05.783Z,21.50
2018-06-07T14:04:33.950Z,21.60
2018-06-07T14:07:02.178Z,21.40
2018-06-07T14:09:30.528Z,21.50
2018-06-07T14:11:58.686Z,21.70
2018-06-07T14:14:27.040Z,21.70
2018-06-07T14:16:55.208Z,21.60
2018-06-07T14:19:23.393Z,21.70
2018-06-07T14:21:51.688Z,22.10
2018-06-07T14:24:19.914Z,22.10
2018-06-07T14:26:48.060Z,21.60
2018-06-07T14:29:16.191Z,21.10
2018-06-07T14:31:44.352Z,20.90
2018-06-07T14:34:12.513Z,21.10
2018-06-07T14:36:40.759Z,21.00
2018-06-07T14:39:09.093Z,21.50
2018-06-07T14:41:37.396Z,21.70
2018-06-07T14:44:05.592Z,21.70
2018-06-07T14:46:33.772Z,21.20
2018-06-07T14:49:02.069Z,21.10
2018-06-07T14:51:30.294Z,20.80
2018-06-07T14:53:58.465Z,21.20
2018-06-07T14:56:27.101Z,21.40
2018-06-07T14:58:55.320Z,21.60
2018-06-07T15:01:23.471Z,21.70
2018-06-07T15:03:51.587Z,21.80
2018-06-07T15:06:19.751Z,22.00
2018-06-07T15:08:48.024Z,22.10
2018-06-07T15:11:16.347Z,22.00
2018-06-07T15:13:44.521Z,21.70
2018-06-07T15:16:12.689Z,22.00
2018-06-07T15:18:40.889Z,22.30
2018-06-07T15:21:09.121Z,22.60
2018-06-07T15:23:37.278Z,22.40
2018-06-07T15:26:05.600Z,22.90
2018-06-07T15:28:33.863Z,22.00
2018-06-07T15:31:02.092Z,22.40
2018-06-07T15:33:30.441Z,22.20
2018-06-07T15:35:58.583Z,22.00
2018-06-07T15:40:54.756Z,22.10
2018-06-07T15:43:22.993Z,22.10
2018-06-07T15:48:19.184Z,22.40
2018-06-07T15:50:47.407Z,22.50
2018-06-07T15:53:15.641Z,23.10
2018-06-07T15:55:43.789Z,22.60
2018-06-07T15:58:12.380Z,22.70
2018-06-07T16:00:40.578Z,22.60
2018-06-07T16:03:08.798Z,22.70
2018-06-07T16:05:36.990Z,22.60
2018-06-07T16:08:05.205Z,22.60
2018-06-07T16:10:33.314Z,22.60
2018-06-07T16:13:01.530Z,22.80
2018-06-07T16:15:29.666Z,23.00
2018-06-07T16:17:57.939Z,23.10
2018-06-07T16:20:26.092Z,22.90
2018-06-07T16:22:54.286Z,23.60
2018-06-07T16:25:22.446Z,23.00
2018-06-07T16:27:50.768Z,23.00
2018-06-07T16:30:19.592Z,23.00
2018-06-07T16:32:47.865Z,23.40
2018-06-07T16:35:16.115Z,23.70
2018-06-07T16:37:44.302Z,23.30
2018-06-07T16:40:12.541Z,23.20
2018-06-07T16:42:41.046Z,23.30
2018-06-07T16:45:11.270Z,23.60
2018-06-07T16:47:39.503Z,23.80
2018-06-07T16:50:07.732Z,24.00
2018-06-07T16:52:35.894Z,24.00
2018-06-07T16:55:04.194Z,24.00
2018-06-07T16:57:32.343Z,23.90
2018-06-07T17:00:00.592Z,24.00
2018-06-07T17:02:28.817Z,24.10
2018-06-07T17:04:57.012Z,24.20
2018-06-07T17:07:25.162Z,24.40
2018-06-07T17:09:53.341Z,24.50
2018-06-07T17:12:21.525Z,24.50
2018-06-07T17:14:49.665Z,24.90
2018-06-07T17:17:18.113Z,24.60
2018-06-07T17:19:46.357Z,24.60
2018-06-07T17:22:14.581Z,24.70
2018-06-07T17:24:42.802Z,25.00
2018-06-07T17:27:11.026Z,25.20
2018-06-07T17:29:39.235Z,25.20
2018-06-07T17:32:07.522Z,25.20
2018-06-07T17:34:35.758Z,25.10
2018-06-07T17:37:03.998Z,25.00
2018-06-07T17:39:32.335Z,25.20
2018-06-07T17:42:00.635Z,25.30
2018-06-07T17:44:28.881Z,25.60
2018-06-07T17:46:57.042Z,25.50
2018-06-07T17:49:25.476Z,25.50
2018-06-07T17:51:53.813Z,25.50
2018-06-07T17:54:22.113Z,25.60
2018-06-07T17:56:50.375Z,25.70
2018-06-07T17:59:18.711Z,25.60
2018-06-07T18:01:47.404Z,25.60
2018-06-07T18:04:15.657Z,25.70
2018-06-07T18:06:43.881Z,25.70
2018-06-07T18:09:12.128Z,26.10
2018-06-07T18:11:40.284Z,26.70
2018-06-07T18:14:08.527Z,26.80
2018-06-07T18:16:36.755Z,26.30
2018-06-07T18:19:04.933Z,26.30
2018-06-07T18:21:33.253Z,26.80
2018-06-07T18:24:01.476Z,27.00
2018-06-07T18:26:29.825Z,26.90
2018-06-07T18:28:57.989Z,27.00
2018-06-07T18:31:26.185Z,26.70
2018-06-07T18:33:54.492Z,27.00
2018-06-07T18:36:22.688Z,26.80
2018-06-07T18:38:50.864Z,26.80
2018-06-07T18:41:19.079Z,27.10
2018-06-07T18:43:47.259Z,27.30
2018-06-07T18:46:16.005Z,27.30
2018-06-07T18:48:44.252Z,27.80
2018-06-07T18:51:12.904Z,27.70
2018-06-07T18:53:41.241Z,28.20
2018-06-07T18:56:09.786Z,28.30
2018-06-07T18:58:37.950Z,28.10
2018-06-07T19:01:06.161Z,28.30
2018-06-07T19:03:34.514Z,28.50
2018-06-07T19:06:02.871Z,28.60
2018-06-07T19:08:36.518Z,28.80
2018-06-07T19:11:05.345Z,28.60
2018-06-07T19:13:39.062Z,28.90
2018-06-07T19:16:07.269Z,28.70
2018-06-07T19:18:35.586Z,28.90
2018-06-07T19:21:03.909Z,29.00
2018-06-07T19:23:32.100Z,28.80
2018-06-07T19:26:07.486Z,29.10
2018-06-07T19:28:36.071Z,29.30
2018-06-07T19:31:04.431Z,29.50
2018-06-07T19:33:38.118Z,29.10
2018-06-07T19:36:08.361Z,29.60
2018-06-07T19:38:42.103Z,29.90
2018-06-07T19:41:15.808Z,29.60
2018-06-07T19:43:44.017Z,29.60
2018-06-07T19:46:12.350Z,29.50
2018-06-07T19:48:40.883Z,29.30
2018-06-07T19:51:09.900Z,29.50
2018-06-07T19:56:06.640Z,29.80
2018-06-07T19:58:34.989Z,29.90
2018-06-07T20:01:03.727Z,29.90
2018-06-07T20:03:32.108Z,29.80
2018-06-07T20:06:00.568Z,29.70
2018-06-07T20:08:29.695Z,29.90
2018-06-07T20:10:58.306Z,30.30
2018-06-07T20:13:27.017Z,30.00
2018-06-07T20:15:55.591Z,30.10
2018-06-07T20:18:23.962Z,30.30
2018-06-07T20:20:52.235Z,30.00
2018-06-07T20:25:48.930Z,30.40
2018-06-07T20:28:17.359Z,30.30
2018-06-07T20:30:46.089Z,30.90
2018-06-07T20:33:14.355Z,30.40
2018-06-07T20:35:42.558Z,31.10
2018-06-07T20:38:10.942Z,30.70
2018-06-07T20:40:39.466Z,30.60
2018-06-07T20:45:36.140Z,30.70
2018-06-07T20:48:04.756Z,30.90
2018-06-07T20:50:32.985Z,31.10
2018-06-07T20:53:01.256Z,31.10
2018-06-07T20:55:30.606Z,31.10
2018-06-07T20:58:00.090Z,31.40
2018-06-07T21:00:28.308Z,31.50
2018-06-07T21:02:56.521Z,31.60
2018-06-07T21:07:53.034Z,33.40
2018-06-07T21:10:21.407Z,33.60
2018-06-07T21:12:51.540Z,33.90
2018-06-07T21:15:20.423Z,33.20
2018-06-07T21:17:48.547Z,32.70
2018-06-07T21:20:16.923Z,33.10
2018-06-07T21:22:45.136Z,32.90
2018-06-07T21:25:13.312Z,32.40
2018-06-07T21:27:41.618Z,32.20
2018-06-07T21:30:09.819Z,32.00
2018-06-07T21:32:38.356Z,32.90
2018-06-07T21:35:06.558Z,32.30
2018-06-07T21:37:36.637Z,32.30
2018-06-07T21:40:04.826Z,32.60
2018-06-07T21:45:04.746Z,32.00
2018-06-07T21:47:33.111Z,32.50
2018-06-07T21:50:01.409Z,32.50
2018-06-07T21:52:29.912Z,32.60
2018-06-07T21:54:58.278Z,32.70
2018-06-07T21:57:26.436Z,32.80
2018-06-07T21:59:54.618Z,32.90
2018-06-07T22:04:50.729Z,33.00
2018-06-07T22:07:18.891Z,33.00
2018-06-07T22:09:47.587Z,33.30
2018-06-07T22:12:15.845Z,33.30
2018-06-07T22:14:44.886Z,33.30
2018-06-07T22:17:13.130Z,33.40
2018-06-07T22:19:41.343Z,33.50
2018-06-07T22:22:09.655Z,33.50
2018-06-07T22:24:37.781Z,33.70
2018-06-07T22:27:06.081Z,33.70
2018-06-07T22:29:34.394Z,33.80
2018-06-07T22:32:02.566Z,34.00
2018-06-07T22:34:30.790Z,34.10
2018-06-07T22:36:59.223Z,34.00
2018-06-07T22:39:27.375Z,34.00
2018-06-07T22:41:55.631Z,34.20
2018-06-07T22:44:23.820Z,34.30
2018-06-07T22:46:52.917Z,34.40
2018-06-07T22:49:21.067Z,34.40
2018-06-07T22:51:49.915Z,34.40
2018-06-07T22:54:18.052Z,34.50
2018-06-07T22:56:46.312Z,34.70
2018-06-07T22:59:14.572Z,34.70
2018-06-07T23:01:42.676Z,34.90
2018-06-07T23:04:10.864Z,34.80
2018-06-07T23:06:39.225Z,34.90
2018-06-07T23:09:08.728Z,35.00
2018-06-07T23:11:37.729Z,35.10
2018-06-07T23:14:05.944Z,35.10
2018-06-07T23:16:34.110Z,35.20
2018-06-07T23:19:02.292Z,35.20
2018-06-07T23:23:58.585Z,35.40
2018-06-07T23:26:26.945Z,35.60
2018-06-07T23:28:55.077Z,35.40
2018-06-07T23:31:23.323Z,35.60
2018-06-07T23:38:47.827Z,35.80
2018-06-07T23:41:15.952Z,36.00
2018-06-07T23:43:44.077Z,36.00
2018-06-07T23:46:12.206Z,36.20
2018-06-07T23:48:40.376Z,36.30
2018-06-07T23:51:08.579Z,36.40
2018-06-07T23:53:36.752Z,36.50
2018-06-07T23:56:04.953Z,36.50
2018-06-07T23:58:33.291Z,36.60
